Time;durP1;ratioP1;P1;durP2;ratioP2;P2;SDS_P1;SDS_P2;PMS_P1;PMS_P2;Temp;Humidity;BMP_temperature;BMP_pressure;BME280_temperature;BME280_humidity;BME280_pressure;Samples;Min_cycle;Max_cycle;Signal;HPM_P1;HPM_P2
2022/11/21 00:01:47;;;;;;;1.92;0.95;;;;;;;7.40;93.74;97309.41;4196962;28;20239;-86
2022/11/21 00:03:51;;;;;;;2.55;1.02;;;;;;;7.42;94.31;97309.31;4179380;28;20278;-85
2022/11/21 00:05:54;;;;;;;1.77;0.80;;;;;;;7.46;93.72;97305.56;4184696;28;20201;-85
2022/11/21 00:07:58;;;;;;;2.30;0.90;;;;;;;7.48;93.44;97309.72;4204550;28;20203;-85
2022/11/21 00:10:01;;;;;;;2.30;0.90;;;;;;;7.45;92.84;97299.56;4183651;28;20215;-86
2022/11/21 00:12:04;;;;;;;1.42;0.88;;;;;;;7.46;93.03;97305.56;4189949;28;20210;-86
2022/11/21 00:14:07;;;;;;;1.38;0.80;;;;;;;7.39;93.64;97301.75;4192011;28;20209;-86
2022/11/21 00:16:13;;;;;;;1.08;0.75;;;;;;;7.36;94.55;97283.81;4202051;28;20588;-86
2022/11/21 00:18:16;;;;;;;1.85;0.80;;;;;;;7.37;93.10;97288.88;4199781;28;20554;-85
2022/11/21 00:20:21;;;;;;;1.20;0.80;;;;;;;7.39;94.30;97293.97;4202828;28;20225;-86
2022/11/21 00:22:24;;;;;;;1.10;0.65;;;;;;;7.39;94.65;97289.59;4188667;28;20204;-86
2022/11/21 00:24:27;;;;;;;0.82;0.52;;;;;;;7.28;95.14;97281.72;4186404;28;20212;-85
2022/11/21 00:26:30;;;;;;;1.42;0.75;;;;;;;7.20;93.54;97284.03;4191888;28;20718;-85
2022/11/21 00:28:34;;;;;;;1.00;0.70;;;;;;;7.18;95.11;97278.09;4198579;28;20344;-86
2022/11/21 00:30:37;;;;;;;2.25;0.70;;;;;;;7.09;94.53;97283.91;4180885;28;20788;-86
2022/11/21 00:32:41;;;;;;;1.10;0.50;;;;;;;7.03;95.76;97281.72;4199574;28;20239;-86
2022/11/21 00:34:44;;;;;;;2.38;0.90;;;;;;;6.99;95.36;97273.44;4198259;28;20237;-86
2022/11/21 00:36:47;;;;;;;1.83;0.80;;;;;;;6.98;96.08;97266.59;4201244;28;20652;-86
2022/11/21 00:38:51;;;;;;;3.95;1.00;;;;;;;6.92;96.06;97267.03;4204624;28;20213;-86
2022/11/21 00:40:54;;;;;;;1.35;0.82;;;;;;;6.87;96.82;97259.56;4190544;28;20205;-86
2022/11/21 00:42:57;;;;;;;1.25;0.70;;;;;;;6.82;95.61;97256.41;4201661;28;20201;-85
2022/11/21 00:45:00;;;;;;;1.15;0.63;;;;;;;6.74;95.67;97252.69;4206308;28;20208;-85
2022/11/21 00:47:03;;;;;;;1.65;0.88;;;;;;;6.67;97.30;97254.84;4200503;28;20205;-85
2022/11/21 00:49:07;;;;;;;1.85;1.00;;;;;;;6.63;97.41;97250.81;4183551;28;20264;-85
2022/11/21 00:51:10;;;;;;;1.50;0.70;;;;;;;6.62;97.53;97254.31;4188840;28;20218;-86
2022/11/21 00:53:13;;;;;;;1.40;0.90;;;;;;;6.58;97.63;97237.34;4186188;28;20213;-86
2022/11/21 00:55:16;;;;;;;2.10;1.00;;;;;;;6.57;97.86;97243.44;4203954;28;20209;-85
2022/11/21 00:57:19;;;;;;;1.40;0.55;;;;;;;6.58;97.66;97245.13;4199945;28;20266;-85
2022/11/21 00:59:22;;;;;;;3.35;0.70;;;;;;;6.60;97.60;97245.03;4198075;28;20304;-86
2022/11/21 01:01:25;;;;;;;2.15;0.75;;;;;;;6.60;98.39;97240.66;4188512;28;20360;-86
2022/11/21 01:03:28;;;;;;;1.00;0.60;;;;;;;6.61;99.27;97246.66;4198839;28;20767;-86
2022/11/21 01:05:33;;;;;;;0.85;0.60;;;;;;;6.59;98.69;97235.59;4184914;28;20202;-86
2022/11/21 01:07:36;;;;;;;2.25;0.70;;;;;;;6.59;98.83;97233.81;4200599;28;20212;-86
2022/11/21 01:09:39;;;;;;;1.35;0.57;;;;;;;6.58;98.77;97239.94;4198214;28;20255;-86
2022/11/21 01:11:42;;;;;;;1.15;0.60;;;;;;;6.63;98.27;97234.44;4207377;28;20205;-86
2022/11/21 01:13:46;;;;;;;1.10;0.50;;;;;;;6.57;97.73;97232.28;4186058;28;20215;-86
2022/11/21 01:15:49;;;;;;;1.95;0.60;;;;;;;6.54;98.52;97227.28;4188691;28;20772;-86
2022/11/21 01:17:52;;;;;;;1.17;0.60;;;;;;;6.57;98.76;97234.88;4192237;28;20259;-85
2022/11/21 01:19:55;;;;;;;0.90;0.50;;;;;;;6.58;98.26;97244.28;4203997;28;20201;-86
2022/11/21 01:21:59;;;;;;;1.55;0.50;;;;;;;6.58;98.09;97231.31;4204974;28;20214;-86
2022/11/21 01:24:02;;;;;;;1.33;0.60;;;;;;;6.63;98.65;97239.59;4187495;28;20204;-86
2022/11/21 01:26:07;;;;;;;0.80;0.50;;;;;;;6.66;98.16;97239.41;4193961;28;20213;-86
2022/11/21 01:28:10;;;;;;;1.05;0.50;;;;;;;6.66;98.31;97253.22;4203529;28;20197;-85
2022/11/21 01:30:14;;;;;;;0.90;0.70;;;;;;;6.70;98.37;97243.47;4185598;28;20685;-85
2022/11/21 01:32:17;;;;;;;0.70;0.52;;;;;;;6.70;97.91;97252.06;4183545;28;20210;-86
2022/11/21 01:34:20;;;;;;;1.58;0.80;;;;;;;6.70;97.32;97246.06;4200678;28;20211;-86
2022/11/21 01:36:24;;;;;;;0.80;0.50;;;;;;;6.73;97.55;97245.84;4200031;28;20246;-86
2022/11/21 01:38:29;;;;;;;0.70;0.40;;;;;;;6.78;96.29;97246.34;4180401;28;20213;-86
2022/11/21 01:40:38;;;;;;;1.75;0.60;;;;;;;6.85;96.93;97245.03;4182953;28;20244;-85
2022/11/21 01:42:53;;;;;;;1.70;0.50;;;;;;;6.87;96.40;97238.81;4184858;28;20238;-86
2022/11/21 01:44:56;;;;;;;1.20;0.60;;;;;;;6.85;96.01;97239.84;4186407;28;20582;-86
2022/11/21 01:46:59;;;;;;;1.15;0.60;;;;;;;6.84;96.33;97233.00;4200639;28;20257;-86
2022/11/21 01:49:05;;;;;;;1.92;0.90;;;;;;;6.79;95.57;97230.72;4196857;28;20198;-86
2022/11/21 01:51:11;;;;;;;1.00;0.60;;;;;;;6.73;96.40;97220.75;4201915;28;20591;-86
2022/11/21 01:53:14;;;;;;;1.67;0.80;;;;;;;6.71;96.17;97225.22;4199942;28;20836;-86
2022/11/21 01:55:18;;;;;;;1.67;0.70;;;;;;;6.72;96.65;97226.03;4185449;28;20686;-86
2022/11/21 01:57:24;;;;;;;1.70;0.75;;;;;;;6.72;97.11;97232.06;4216221;28;20258;-86
2022/11/21 01:59:29;;;;;;;1.25;0.65;;;;;;;6.69;98.68;97231.44;4198360;28;20209;-85
2022/11/21 02:01:34;;;;;;;2.15;0.75;;;;;;;6.70;99.78;97235.69;4184471;28;20230;-85
2022/11/21 02:03:38;;;;;;;2.28;0.60;;;;;;;6.68;99.40;97238.38;4181358;28;20229;-86
2022/11/21 02:05:41;;;;;;;3.20;0.80;;;;;;;6.62;100.00;97241.38;4181641;28;20232;-86
2022/11/21 02:07:46;;;;;;;2.22;0.68;;;;;;;6.54;100.00;97245.44;4215826;28;20235;-86
2022/11/21 02:09:52;;;;;;;3.35;0.70;;;;;;;6.48;100.00;97232.03;4197062;28;20291;-86
2022/11/21 02:12:00;;;;;;;3.08;0.88;;;;;;;6.48;100.00;97227.69;4200419;28;20210;-86
2022/11/21 02:14:03;;;;;;;1.00;0.65;;;;;;;6.42;100.00;97230.69;4200564;28;20664;-86
2022/11/21 02:16:07;;;;;;;1.08;0.60;;;;;;;6.40;100.00;97229.94;4203386;28;20587;-86
2022/11/21 02:18:10;;;;;;;0.95;0.60;;;;;;;6.39;100.00;97233.47;4187646;28;20277;-86
2022/11/21 02:20:15;;;;;;;1.38;0.90;;;;;;;6.36;100.00;97231.09;4209333;28;20201;-85
2022/11/21 02:22:25;;;;;;;2.65;0.90;;;;;;;6.30;100.00;97225.47;4180105;28;20647;-86
2022/11/21 02:24:33;;;;;;;3.30;0.98;;;;;;;6.26;100.00;97222.25;4201058;28;20553;-86
2022/11/21 02:26:38;;;;;;;1.45;0.90;;;;;;;6.25;100.00;97225.75;4199609;28;20215;-86
2022/11/21 02:28:43;;;;;;;4.75;0.90;;;;;;;6.19;100.00;97220.16;4198246;28;20269;-86
2022/11/21 02:30:46;;;;;;;4.10;0.80;;;;;;;6.13;100.00;97226.59;4200575;28;20529;-86
2022/11/21 02:32:49;;;;;;;2.67;0.70;;;;;;;6.10;100.00;97213.84;4202152;28;20217;-85
2022/11/21 02:34:52;;;;;;;1.92;1.25;;;;;;;6.09;100.00;97227.69;4189882;28;20203;-86
2022/11/21 02:36:56;;;;;;;1.73;0.63;;;;;;;6.15;100.00;97226.50;4186873;28;20250;-86
2022/11/21 02:38:59;;;;;;;1.00;0.60;;;;;;;6.12;100.00;97221.50;4188623;28;20213;-86
2022/11/21 02:41:07;;;;;;;2.55;1.02;;;;;;;6.14;100.00;97215.28;4199048;28;20206;-85
2022/11/21 02:43:15;;;;;;;1.10;0.63;;;;;;;6.17;100.00;97220.25;4194666;28;20210;-85
2022/11/21 02:45:21;;;;;;;0.90;0.60;;;;;;;6.22;100.00;97220.81;4186365;28;20219;-85
2022/11/21 02:47:24;;;;;;;1.48;0.65;;;;;;;6.26;100.00;97224.03;4198246;28;20697;-85
2022/11/21 02:49:34;;;;;;;3.10;0.70;;;;;;;6.32;100.00;97224.44;4180147;28;20304;-85
2022/11/21 02:51:37;;;;;;;1.00;0.60;;;;;;;6.40;100.00;97221.34;4183434;28;20705;-85
2022/11/21 02:53:40;;;;;;;5.40;0.50;;;;;;;6.45;100.00;97217.53;4182367;28;20616;-85
2022/11/21 02:55:44;;;;;;;2.55;0.90;;;;;;;6.51;100.00;97213.69;4197044;28;20209;-85
2022/11/21 02:57:47;;;;;;;2.13;0.60;;;;;;;6.56;100.00;97215.88;4186871;28;20222;-85
2022/11/21 02:59:52;;;;;;;1.13;0.82;;;;;;;6.64;100.00;97216.19;4203100;28;20258;-85
2022/11/21 03:01:58;;;;;;;3.25;0.90;;;;;;;6.72;100.00;97202.72;4187267;28;20208;-85
2022/11/21 03:04:01;;;;;;;1.60;0.73;;;;;;;6.77;100.00;97216.22;4200183;28;20244;-85
2022/11/21 03:06:04;;;;;;;1.55;0.77;;;;;;;6.78;100.00;97213.53;4181912;28;20290;-85
2022/11/21 03:08:07;;;;;;;1.63;0.70;;;;;;;6.74;100.00;97208.66;4184616;28;20236;-86
2022/11/21 03:10:11;;;;;;;1.98;0.70;;;;;;;6.81;100.00;97207.28;4182456;28;20333;-85
2022/11/21 03:12:14;;;;;;;1.00;0.70;;;;;;;6.87;100.00;97206.88;4183161;28;20204;-85
2022/11/21 03:14:17;;;;;;;2.17;0.95;;;;;;;6.85;100.00;97204.38;4199055;28;20200;-85
2022/11/21 03:16:21;;;;;;;1.85;0.75;;;;;;;6.78;100.00;97198.00;4198060;28;20202;-85
2022/11/21 03:18:24;;;;;;;1.67;0.70;;;;;;;6.79;100.00;97194.44;4198672;28;20200;-86
2022/11/21 03:20:28;;;;;;;3.17;0.60;;;;;;;6.79;100.00;97194.44;4202209;28;20226;-86
2022/11/21 03:22:31;;;;;;;1.80;0.82;;;;;;;6.76;100.00;97191.25;4184541;28;20308;-85
2022/11/21 03:24:34;;;;;;;2.45;0.73;;;;;;;6.73;100.00;97194.03;4206300;28;20205;-85
2022/11/21 03:26:37;;;;;;;1.20;0.70;;;;;;;6.69;100.00;97187.38;4201058;28;20298;-85
2022/11/21 03:28:41;;;;;;;1.45;0.70;;;;;;;6.65;100.00;97189.38;4195958;28;20212;-85
2022/11/21 03:30:44;;;;;;;3.22;0.80;;;;;;;6.66;100.00;97191.03;4204593;28;20744;-85
2022/11/21 03:32:49;;;;;;;1.90;0.70;;;;;;;6.64;100.00;97189.47;4201978;28;20239;-85
2022/11/21 03:34:52;;;;;;;1.88;0.80;;;;;;;6.62;100.00;97193.94;4201048;28;20532;-84
2022/11/21 03:36:55;;;;;;;2.42;0.75;;;;;;;6.61;100.00;97194.84;4187629;28;20203;-85
2022/11/21 03:38:58;;;;;;;1.05;0.70;;;;;;;6.61;100.00;97184.50;4180198;28;20215;-84
2022/11/21 03:41:04;;;;;;;1.55;0.90;;;;;;;6.60;100.00;97186.28;4198336;28;20674;-85
2022/11/21 03:43:07;;;;;;;1.75;0.70;;;;;;;6.55;100.00;97184.91;4182053;28;20202;-84
2022/11/21 03:45:10;;;;;;;1.50;0.60;;;;;;;6.59;100.00;97188.97;4195483;28;20225;-85
2022/11/21 03:47:13;;;;;;;2.60;0.60;;;;;;;6.59;100.00;97191.56;4197254;28;20585;-85
2022/11/21 03:49:18;;;;;;;1.00;0.60;;;;;;;6.65;100.00;97183.38;4198004;28;20307;-85
2022/11/21 03:51:21;;;;;;;1.20;0.50;;;;;;;6.71;100.00;97181.19;4199352;28;20223;-85
2022/11/21 03:53:24;;;;;;;1.20;0.50;;;;;;;6.73;100.00;97183.69;4184360;28;20205;-85
2022/11/21 03:55:27;;;;;;;1.33;0.50;;;;;;;6.79;100.00;97186.66;4200367;28;20211;-85
2022/11/21 03:57:30;;;;;;;0.80;0.50;;;;;;;6.83;100.00;97185.53;4183998;28;20228;-85
2022/11/21 03:59:33;;;;;;;0.80;0.43;;;;;;;6.90;100.00;97191.13;4199504;28;20219;-85
2022/11/21 04:01:36;;;;;;;1.35;0.50;;;;;;;6.94;100.00;97184.81;4202585;28;20709;-85
2022/11/21 04:03:40;;;;;;;0.90;0.40;;;;;;;6.97;100.00;97193.19;4177006;28;20682;-85
2022/11/21 04:05:45;;;;;;;2.83;0.45;;;;;;;7.01;100.00;97191.25;4186828;28;20204;-84
2022/11/21 04:07:48;;;;;;;0.70;0.40;;;;;;;7.03;100.00;97187.59;4203155;28;20288;-85
2022/11/21 04:09:51;;;;;;;1.70;0.80;;;;;;;7.09;99.54;97187.97;4177976;28;20208;-85
2022/11/21 04:11:54;;;;;;;1.17;0.50;;;;;;;7.09;99.18;97182.81;4202509;28;20252;-85
2022/11/21 04:13:57;;;;;;;0.88;0.60;;;;;;;7.10;98.44;97192.25;4200028;28;20189;-85
2022/11/21 04:16:00;;;;;;;1.35;0.50;;;;;;;7.14;99.80;97190.25;4202063;28;20212;-85
2022/11/21 04:18:03;;;;;;;2.90;1.00;;;;;;;7.16;98.38;97181.44;4206779;28;20672;-85
2022/11/21 04:20:07;;;;;;;2.20;1.27;;;;;;;7.20;98.53;97185.50;4199939;28;20699;-85
2022/11/21 04:22:12;;;;;;;3.53;1.30;;;;;;;7.24;98.38;97184.34;4203691;28;20224;-85
2022/11/21 04:24:15;;;;;;;1.50;0.90;;;;;;;7.29;99.28;97191.78;4196820;28;20228;-85
2022/11/21 04:26:18;;;;;;;1.55;0.70;;;;;;;7.30;98.67;97185.69;4203735;28;20208;-85
2022/11/21 04:28:21;;;;;;;1.05;0.55;;;;;;;7.33;99.26;97185.47;4182094;28;20198;-85
2022/11/21 04:30:24;;;;;;;1.20;0.50;;;;;;;7.34;97.63;97174.16;4185787;28;20296;-85
2022/11/21 04:32:27;;;;;;;1.63;0.55;;;;;;;7.37;98.55;97169.59;4191495;28;20896;-85
2022/11/21 04:34:30;;;;;;;1.25;0.47;;;;;;;7.41;98.12;97173.59;4178723;28;20204;-85
2022/11/21 04:36:33;;;;;;;0.90;0.50;;;;;;;7.38;97.62;97163.47;4200752;28;20208;-85
2022/11/21 04:38:38;;;;;;;1.65;0.50;;;;;;;7.38;98.19;97162.63;4189546;28;20203;-84
2022/11/21 04:40:43;;;;;;;1.00;0.55;;;;;;;7.40;98.03;97161.59;4186317;28;20250;-86
2022/11/21 04:42:47;;;;;;;0.90;0.55;;;;;;;7.38;98.41;97158.28;4194367;28;20201;-85
2022/11/21 04:44:50;;;;;;;1.75;0.68;;;;;;;7.31;98.05;97157.06;4199962;28;20581;-85
2022/11/21 04:46:53;;;;;;;1.98;0.75;;;;;;;7.32;97.06;97161.31;4214364;28;20854;-85
2022/11/21 04:48:56;;;;;;;1.88;0.57;;;;;;;7.36;98.01;97169.69;4198248;28;20216;-85
2022/11/21 04:51:01;;;;;;;0.98;0.50;;;;;;;7.36;97.80;97160.13;4197201;28;20205;-85
2022/11/21 04:53:05;;;;;;;1.90;0.70;;;;;;;7.29;97.99;97163.28;4187556;28;20228;-84
2022/11/21 04:55:10;;;;;;;0.98;0.68;;;;;;;7.26;98.03;97153.09;4203526;28;20199;-85
2022/11/21 04:57:13;;;;;;;1.15;0.60;;;;;;;7.21;98.05;97166.41;4187227;28;20224;-85
2022/11/21 04:59:16;;;;;;;1.85;0.65;;;;;;;7.22;99.70;97167.25;4200135;28;20216;-85
2022/11/21 05:01:19;;;;;;;2.25;0.60;;;;;;;7.25;99.56;97165.25;4204706;28;20200;-86
2022/11/21 05:03:22;;;;;;;3.00;0.80;;;;;;;7.25;98.78;97167.84;4205383;28;20228;-85
2022/11/21 05:05:25;;;;;;;2.35;0.80;;;;;;;7.23;99.47;97169.72;4187931;28;20572;-85
2022/11/21 05:07:28;;;;;;;0.80;0.68;;;;;;;7.18;99.58;97170.97;4184842;28;20295;-85
2022/11/21 05:09:31;;;;;;;0.90;0.60;;;;;;;7.06;99.97;97161.47;4198775;28;20303;-85
2022/11/21 05:13:56;;;;;;;1.02;0.55;;;;;;;6.92;100.00;97168.53;4188802;28;20226;-85
2022/11/21 05:15:59;;;;;;;1.40;0.75;;;;;;;6.86;100.00;97164.59;4201653;28;20194;-85
2022/11/21 05:18:02;;;;;;;1.50;0.80;;;;;;;6.80;100.00;97169.38;4199317;28;20233;-84
2022/11/21 05:20:06;;;;;;;1.80;0.90;;;;;;;6.81;100.00;97171.03;4190001;28;20297;-84
2022/11/21 05:22:09;;;;;;;1.10;0.75;;;;;;;6.81;100.00;97169.28;4206116;28;20267;-85
2022/11/21 05:24:12;;;;;;;1.02;0.68;;;;;;;6.81;100.00;97166.69;4184759;28;20646;-85
2022/11/21 05:26:15;;;;;;;1.23;0.90;;;;;;;6.84;100.00;97186.34;4206924;28;20699;-85
2022/11/21 05:28:20;;;;;;;1.48;1.25;;;;;;;6.88;100.00;97183.44;4196361;28;20315;-85
2022/11/21 05:30:23;;;;;;;3.85;1.30;;;;;;;6.86;100.00;97187.09;4184497;28;20211;-85
2022/11/21 05:32:26;;;;;;;1.70;0.90;;;;;;;6.83;100.00;97182.13;4201004;28;21474;-85
2022/11/21 05:34:29;;;;;;;2.35;1.30;;;;;;;6.88;100.00;97183.44;4201967;28;20225;-87
2022/11/21 05:36:32;;;;;;;1.33;1.05;;;;;;;6.91;100.00;97172.06;4201818;28;20236;-85
2022/11/21 05:38:36;;;;;;;2.55;1.10;;;;;;;6.96;100.00;97185.53;4189541;28;20209;-86
2022/11/21 05:40:39;;;;;;;2.05;1.40;;;;;;;7.03;100.00;97191.97;4190771;28;20211;-86
2022/11/21 05:45:04;;;;;;;2.90;0.93;;;;;;;7.14;100.00;97211.00;4187798;28;20311;-87
2022/11/21 05:47:07;;;;;;;2.05;0.80;;;;;;;7.21;100.00;97215.66;4197965;28;20259;-86
2022/11/21 05:49:11;;;;;;;2.90;1.17;;;;;;;7.24;100.00;97223.22;4185542;28;20308;-86
2022/11/21 05:51:14;;;;;;;2.67;1.25;;;;;;;7.27;100.00;97196.25;4203275;28;20205;-85
2022/11/21 05:53:18;;;;;;;3.75;1.67;;;;;;;7.30;100.00;97204.66;4182601;28;20264;-85
2022/11/21 05:55:21;;;;;;;3.70;1.00;;;;;;;7.31;100.00;97187.34;4200513;28;20299;-85
2022/11/21 05:57:24;;;;;;;3.83;1.23;;;;;;;7.32;100.00;97187.25;4185753;28;20270;-85
2022/11/21 05:59:27;;;;;;;3.38;1.50;;;;;;;7.32;100.00;97197.63;4188757;28;20208;-85
2022/11/21 06:03:49;;;;;;;4.43;1.50;;;;;;;7.39;100.00;97210.97;4140231;28;20904;-85
2022/11/21 06:05:52;;;;;;;1.55;1.23;;;;;;;7.39;100.00;97203.19;4198240;28;20216;-85
2022/11/21 06:07:54;;;;;;;3.92;1.23;;;;;;;7.45;100.00;97215.72;4199202;28;20288;-85
2022/11/21 06:09:57;;;;;;;2.65;1.17;;;;;;;7.47;100.00;97191.31;4202479;28;20210;-85
2022/11/21 06:12:01;;;;;;;3.90;1.88;;;;;;;7.47;100.00;97195.69;4184226;28;20220;-85
2022/11/21 06:14:04;;;;;;;2.28;1.55;;;;;;;7.49;100.00;97202.44;4198882;28;20225;-85
2022/11/21 06:16:08;;;;;;;4.07;1.30;;;;;;;7.48;100.00;97188.63;4196835;28;20300;-85
2022/11/21 06:18:13;;;;;;;5.50;1.50;;;;;;;7.49;100.00;97189.47;4185387;28;20313;-85
2022/11/21 06:20:16;;;;;;;2.63;1.33;;;;;;;7.50;100.00;97191.09;4201307;28;20625;-85
2022/11/21 06:22:19;;;;;;;2.75;1.30;;;;;;;7.52;100.00;97191.84;4187201;28;20890;-85
2022/11/21 06:24:22;;;;;;;3.17;1.60;;;;;;;7.54;100.00;97195.97;4188135;28;20213;-85
2022/11/21 06:26:26;;;;;;;6.05;1.65;;;;;;;7.58;100.00;97191.41;4202738;28;20236;-85
2022/11/21 06:28:32;;;;;;;3.72;1.67;;;;;;;7.64;100.00;97193.56;4185819;28;20211;-85
2022/11/21 06:30:35;;;;;;;4.07;1.73;;;;;;;7.67;100.00;97190.75;4198602;28;20205;-86
2022/11/21 06:32:38;;;;;;;4.72;2.10;;;;;;;7.67;100.00;97195.97;4184408;28;20638;-85
2022/11/21 06:34:43;;;;;;;2.88;1.98;;;;;;;7.65;100.00;97203.84;4191007;28;20209;-86
2022/11/21 06:36:46;;;;;;;4.53;1.60;;;;;;;7.62;100.00;97198.03;4185776;28;20220;-85
2022/11/21 06:38:49;;;;;;;3.97;1.70;;;;;;;7.60;100.00;97199.91;4197394;28;20226;-85
2022/11/21 06:40:52;;;;;;;5.18;1.80;;;;;;;7.59;100.00;97199.09;4184186;28;20242;-85
2022/11/21 06:42:56;;;;;;;2.70;1.52;;;;;;;7.61;100.00;97206.78;4202839;28;20220;-85
2022/11/21 06:44:59;;;;;;;3.55;1.83;;;;;;;7.66;100.00;97205.47;4183452;28;20217;-85
2022/11/21 06:47:02;;;;;;;5.80;2.05;;;;;;;7.70;100.00;97211.31;4184896;28;20208;-85
2022/11/21 06:49:05;;;;;;;3.15;1.63;;;;;;;7.73;100.00;97214.50;4203817;28;20254;-85
2022/11/21 06:51:13;;;;;;;4.60;2.42;;;;;;;7.77;100.00;97215.97;4202498;28;20193;-85
2022/11/21 06:53:16;;;;;;;3.05;1.65;;;;;;;7.80;100.00;97215.69;4198727;28;20232;-85
2022/11/21 06:55:20;;;;;;;5.13;1.50;;;;;;;7.84;100.00;97216.34;4200358;28;20205;-85
2022/11/21 06:57:23;;;;;;;2.25;1.77;;;;;;;7.88;100.00;97226.38;4201235;28;20673;-85
2022/11/21 06:59:26;;;;;;;4.15;1.70;;;;;;;7.90;100.00;97219.31;4185228;28;20213;-85
2022/11/21 07:01:29;;;;;;;4.22;1.80;;;;;;;7.85;100.00;97225.75;4183635;28;20579;-85
2022/11/21 07:03:32;;;;;;;4.05;1.95;;;;;;;7.74;99.90;97220.50;4185183;28;20232;-85
2022/11/21 07:05:35;;;;;;;4.38;1.90;;;;;;;7.70;100.00;97222.50;4184382;28;20883;-85
2022/11/21 07:07:40;;;;;;;5.82;1.80;;;;;;;7.63;99.91;97212.66;4200974;28;20239;-85
2022/11/21 07:09:46;;;;;;;4.63;1.85;;;;;;;7.52;100.00;97213.41;4194638;28;20340;-85
2022/11/21 07:11:49;;;;;;;6.18;2.38;;;;;;;7.48;100.00;97218.94;4197637;28;20196;-84
2022/11/21 07:13:51;;;;;;;4.13;1.58;;;;;;;7.45;99.60;97224.34;4187048;28;20217;-84
2022/11/21 07:15:56;;;;;;;3.83;1.55;;;;;;;7.45;99.63;97218.31;4187721;28;20225;-84
2022/11/21 07:17:59;;;;;;;4.10;1.92;;;;;;;7.47;100.00;97225.03;4202382;28;20206;-84
2022/11/21 07:20:02;;;;;;;4.68;1.90;;;;;;;7.45;99.56;97228.69;4185080;28;20202;-84
2022/11/21 07:22:07;;;;;;;4.45;2.20;;;;;;;7.45;100.00;97226.09;4188802;28;20232;-84
2022/11/21 07:24:12;;;;;;;4.93;2.10;;;;;;;7.45;100.00;97224.34;4200725;28;20220;-83
2022/11/21 07:26:15;;;;;;;4.47;2.40;;;;;;;7.46;100.00;97219.97;4198537;28;20239;-83
2022/11/21 07:28:18;;;;;;;4.50;1.90;;;;;;;7.51;100.00;97221.31;4201912;28;20212;-83
2022/11/21 07:30:21;;;;;;;4.97;2.00;;;;;;;7.57;100.00;97215.69;4182474;28;20292;-83
2022/11/21 07:32:25;;;;;;;3.90;1.98;;;;;;;7.64;100.00;97212.56;4196652;28;20562;-83
2022/11/21 07:34:27;;;;;;;4.50;2.15;;;;;;;7.67;99.73;97209.75;4204077;28;20220;-83
2022/11/21 07:36:31;;;;;;;6.10;2.20;;;;;;;7.73;100.00;97205.91;4183894;28;20210;-83
2022/11/21 07:38:34;;;;;;;6.90;2.10;;;;;;;7.81;99.99;97209.59;4183295;28;20208;-83
2022/11/21 07:40:39;;;;;;;5.35;2.28;;;;;;;7.89;100.00;97219.41;4183971;28;20212;-84
2022/11/21 07:42:41;;;;;;;5.00;2.10;;;;;;;7.91;100.00;97214.94;4186083;28;20198;-82
2022/11/21 07:44:45;;;;;;;4.18;1.85;;;;;;;7.90;98.87;97215.91;4187691;28;20247;-83
2022/11/21 07:46:48;;;;;;;5.72;3.03;;;;;;;7.91;99.04;97223.56;4184383;28;20254;-83
2022/11/21 07:48:51;;;;;;;8.27;2.67;;;;;;;7.96;100.00;97221.47;4200845;28;20270;-84
2022/11/21 07:50:54;;;;;;;7.15;4.60;;;;;;;7.98;100.00;97228.22;4196332;28;20295;-84
2022/11/21 07:52:58;;;;;;;4.43;2.40;;;;;;;7.94;99.30;97222.50;4192259;28;20219;-84
2022/11/21 07:55:01;;;;;;;5.88;2.35;;;;;;;7.90;98.70;97228.88;4199839;28;20227;-84
2022/11/21 07:57:05;;;;;;;7.45;2.80;;;;;;;7.91;99.23;97225.31;4181399;28;20204;-84
2022/11/21 07:59:09;;;;;;;3.35;2.15;;;;;;;7.90;98.91;97226.28;4183136;28;20228;-86
2022/11/21 08:01:12;;;;;;;5.47;2.22;;;;;;;7.89;98.04;97222.00;4200373;28;20255;-84
2022/11/21 08:03:15;;;;;;;5.63;1.80;;;;;;;7.91;97.89;97225.31;4201804;28;20348;-86
2022/11/21 08:05:18;;;;;;;3.35;1.92;;;;;;;7.95;98.14;97226.78;4195215;28;20314;-85
2022/11/21 08:07:22;;;;;;;4.88;2.00;;;;;;;7.99;99.23;97229.84;4197385;28;20256;-84
2022/11/21 08:09:28;;;;;;;3.25;1.65;;;;;;;8.01;98.38;97228.00;4181665;28;20292;-84
2022/11/21 08:11:31;;;;;;;3.22;1.80;;;;;;;7.98;97.99;97232.56;4183068;28;20209;-86
2022/11/21 08:13:36;;;;;;;7.38;2.05;;;;;;;7.99;97.47;97229.03;4183791;28;20618;-86
2022/11/21 08:15:39;;;;;;;8.90;3.60;;;;;;;8.00;97.81;97222.91;4198366;28;20224;-86
2022/11/21 08:17:43;;;;;;;8.20;3.17;;;;;;;8.06;98.44;97225.06;4184375;28;20267;-86
2022/11/21 08:19:46;;;;;;;4.25;2.13;;;;;;;8.05;96.62;97218.22;4182955;28;20768;-86
2022/11/21 08:21:49;;;;;;;4.55;2.10;;;;;;;8.05;97.37;97226.00;4198866;28;20209;-86
2022/11/21 08:23:52;;;;;;;5.10;2.65;;;;;;;8.07;97.36;97222.38;4184121;28;20196;-86
2022/11/21 08:25:55;;;;;;;5.93;2.08;;;;;;;8.09;98.33;97223.06;4179988;28;20319;-86
2022/11/21 08:27:58;;;;;;;7.63;2.35;;;;;;;8.11;97.06;97234.19;4201276;28;20217;-87
2022/11/21 08:30:04;;;;;;;4.60;2.20;;;;;;;8.07;96.38;97226.72;4197195;28;20208;-86
2022/11/21 08:32:07;;;;;;;4.10;2.75;;;;;;;7.97;97.58;97213.56;4206463;28;20207;-86
2022/11/21 08:34:11;;;;;;;3.92;2.47;;;;;;;7.88;97.61;97215.16;4190401;28;20583;-86
2022/11/21 08:36:16;;;;;;;3.30;2.10;;;;;;;7.89;97.66;97216.81;4205657;28;20205;-86
2022/11/21 08:38:19;;;;;;;2.80;1.95;;;;;;;7.87;95.68;97214.34;4204128;28;20975;-86
2022/11/21 08:40:22;;;;;;;6.57;2.15;;;;;;;7.84;96.84;97216.34;4181858;28;20319;-86
2022/11/21 08:42:25;;;;;;;6.00;3.40;;;;;;;7.91;96.32;97225.31;4187471;28;20290;-86
2022/11/21 08:44:28;;;;;;;5.88;2.42;;;;;;;7.94;95.85;97220.75;4190167;28;20217;-86
2022/11/21 08:46:36;;;;;;;4.13;1.80;;;;;;;7.97;97.49;97223.94;4184039;28;20541;-85
2022/11/21 08:48:39;;;;;;;2.45;1.60;;;;;;;7.91;96.36;97218.38;4187349;28;20670;-85
2022/11/21 08:50:42;;;;;;;3.65;1.75;;;;;;;7.84;97.64;97217.16;4203226;28;20744;-85
2022/11/21 08:52:45;;;;;;;5.43;2.13;;;;;;;7.85;97.42;97213.63;4188863;28;20218;-85
2022/11/21 08:54:48;;;;;;;2.75;1.63;;;;;;;7.86;96.20;97214.44;4187818;28;20225;-85
2022/11/21 08:56:52;;;;;;;3.58;2.08;;;;;;;7.88;96.33;97212.56;4203962;28;20615;-85
2022/11/21 08:58:55;;;;;;;6.32;1.95;;;;;;;7.93;97.60;97210.50;4204639;28;20215;-85
2022/11/21 09:00:59;;;;;;;7.60;1.92;;;;;;;7.94;96.39;97210.38;4201554;28;20288;-85
2022/11/21 09:03:05;;;;;;;3.53;1.90;;;;;;;7.97;96.80;97213.56;4189637;28;20296;-85
2022/11/21 09:05:09;;;;;;;6.00;2.00;;;;;;;8.00;98.13;97207.34;4202149;28;20205;-86
2022/11/21 09:07:12;;;;;;;4.57;1.70;;;;;;;8.02;97.88;97208.88;4189797;28;20235;-85
2022/11/21 09:09:15;;;;;;;3.15;1.42;;;;;;;7.97;96.89;97202.38;4202256;28;20224;-86
2022/11/21 09:11:26;;;;;;;3.95;1.88;;;;;;;7.96;96.39;97212.88;4180566;28;20216;-86
2022/11/21 09:13:30;;;;;;;9.07;5.88;;;;;;;7.96;97.15;97210.25;4188537;28;20201;-84
2022/11/21 09:18:05;;;;;;;2.63;1.58;;;;;;;7.94;94.94;97212.13;4192137;28;20193;-85
2022/11/21 09:20:10;;;;;;;4.18;1.77;;;;;;;7.96;95.93;97203.28;4202024;28;20707;-85
2022/11/21 09:22:13;;;;;;;3.97;1.63;;;;;;;8.03;97.00;97200.16;4188246;28;20292;-85
2022/11/21 09:24:16;;;;;;;6.35;1.92;;;;;;;8.03;95.31;97202.75;4201683;28;20672;-85
2022/11/21 09:26:19;;;;;;;4.40;2.58;;;;;;;8.06;95.40;97199.94;4196019;28;20790;-85
2022/11/21 09:28:23;;;;;;;4.82;1.98;;;;;;;8.08;96.51;97194.63;4199252;28;20711;-85
2022/11/21 09:30:26;;;;;;;7.72;2.22;;;;;;;8.17;96.51;97196.59;4205310;28;20661;-86
2022/11/21 09:32:30;;;;;;;4.38;1.75;;;;;;;8.29;96.00;97193.91;4207082;28;20218;-85
2022/11/21 09:34:33;;;;;;;2.83;1.55;;;;;;;8.37;96.33;97196.75;4205536;28;20228;-85
2022/11/21 09:36:38;;;;;;;4.47;2.00;;;;;;;8.46;96.04;97209.06;4186132;28;20231;-85
2022/11/21 09:38:41;;;;;;;7.38;3.05;;;;;;;8.56;96.25;97200.47;4203797;28;20204;-85
2022/11/21 09:40:46;;;;;;;4.32;3.17;;;;;;;8.70;96.32;97207.25;4181641;28;20213;-85
2022/11/21 09:43:13;;;;;;;14.73;6.88;;;;;;;8.78;95.29;97202.28;4182045;28;20210;-85
2022/11/21 09:45:19;;;;;;;39.28;8.10;;;;;;;8.80;95.47;97200.44;4187115;28;20310;-86
2022/11/21 09:47:25;;;;;;;7.53;2.55;;;;;;;8.84;95.47;97204.44;4203556;28;20216;-85
2022/11/21 09:49:28;;;;;;;6.85;2.15;;;;;;;8.83;94.03;97208.00;4179398;28;20203;-85
2022/11/21 09:51:32;;;;;;;4.75;2.40;;;;;;;8.79;93.07;97202.19;4201610;28;20197;-85
2022/11/21 09:53:38;;;;;;;5.05;1.83;;;;;;;8.69;91.35;97206.44;4200406;28;20236;-85
2022/11/21 09:55:44;;;;;;;3.03;1.73;;;;;;;8.74;92.53;97198.28;4198853;28;20251;-86
2022/11/21 09:57:49;;;;;;;11.55;5.05;;;;;;;8.65;92.34;97194.59;4186148;28;20289;-86